createdAt,value
2024-03-02T00:01:55.151Z,80.64
2024-03-02T00:04:25.778Z,80.30
2024-03-02T00:06:56.598Z,81.46
2024-03-02T00:09:26.987Z,81.46
2024-03-02T00:11:57.278Z,80.88
2024-03-02T00:14:29.017Z,80.24
2024-03-02T00:17:00.197Z,81.63
2024-03-02T00:19:30.903Z,82.03
2024-03-02T00:22:02.971Z,82.03
2024-03-02T00:24:35.532Z,82.39
2024-03-02T00:27:07.658Z,81.23
2024-03-02T00:29:37.988Z,80.62
2024-03-02T00:32:11.104Z,81.28
2024-03-02T00:34:41.588Z,81.68
2024-03-02T00:37:13.068Z,82.25
2024-03-02T00:39:43.242Z,82.25
2024-03-02T00:42:13.928Z,82.99
2024-03-02T00:44:44.127Z,82.99
2024-03-02T00:47:14.244Z,82.51
2024-03-02T00:49:44.464Z,82.03
2024-03-02T00:52:15.040Z,82.03
2024-03-02T00:54:45.175Z,82.47
2024-03-02T00:57:16.669Z,82.27
2024-03-02T00:59:46.744Z,82.87
2024-03-02T01:02:17.105Z,82.87
2024-03-02T01:04:47.529Z,82.12
2024-03-02T01:07:17.928Z,82.12
2024-03-02T01:09:48.020Z,83.35
2024-03-02T01:12:18.453Z,83.02
2024-03-02T01:14:48.646Z,83.11
2024-03-02T01:17:18.721Z,82.15
2024-03-02T01:19:49.034Z,82.15
2024-03-02T01:22:19.244Z,82.89
2024-03-02T01:24:49.490Z,83.61
2024-03-02T01:27:19.585Z,83.20
2024-03-02T01:29:49.896Z,82.99
2024-03-02T01:32:20.025Z,82.95
2024-03-02T01:34:50.271Z,82.95
2024-03-02T01:37:20.513Z,83.12
2024-03-02T01:39:50.758Z,83.12
2024-03-02T01:42:21.236Z,83.36
2024-03-02T01:44:52.141Z,83.36
2024-03-02T01:47:22.494Z,83.44
2024-03-02T01:49:52.720Z,83.84
2024-03-02T01:52:22.935Z,82.65
2024-03-02T01:54:53.608Z,82.66
2024-03-02T01:57:23.987Z,83.25
2024-03-02T01:59:54.144Z,84.08
2024-03-02T02:02:24.559Z,83.69
2024-03-02T02:04:54.722Z,83.57
2024-03-02T02:07:25.096Z,83.37
2024-03-02T02:09:55.218Z,84.21
2024-03-02T02:12:25.863Z,84.18
2024-03-02T02:14:56.030Z,84.18
2024-03-02T02:17:26.354Z,83.21
2024-03-02T02:19:56.556Z,83.61
2024-03-02T02:22:26.826Z,83.85
2024-03-02T02:24:57.120Z,83.97
2024-03-02T02:27:27.340Z,84.67
2024-03-02T02:29:57.437Z,84.38
2024-03-02T02:32:27.531Z,84.38
2024-03-02T02:34:57.670Z,84.77
2024-03-02T02:37:28.168Z,83.76
2024-03-02T02:39:58.349Z,83.90
2024-03-02T02:42:28.470Z,83.90
2024-03-02T02:44:58.774Z,83.83
2024-03-02T02:47:29.233Z,84.11
2024-03-02T02:49:59.575Z,84.32
2024-03-02T02:52:34.428Z,84.55
2024-03-02T02:55:09.446Z,84.55
2024-03-02T02:57:42.128Z,84.60
2024-03-02T03:00:17.594Z,84.35
2024-03-02T03:02:50.391Z,84.55
2024-03-02T03:05:21.386Z,84.28
2024-03-02T03:07:51.721Z,85.06
2024-03-02T03:10:22.120Z,84.05
2024-03-02T03:12:52.552Z,83.78
2024-03-02T03:15:22.723Z,84.95
2024-03-02T03:17:52.865Z,86.21
2024-03-02T03:20:22.959Z,85.04
2024-03-02T03:22:53.108Z,84.58
2024-03-02T03:25:23.487Z,85.02
2024-03-02T03:27:53.985Z,86.29
2024-03-02T03:30:24.202Z,86.19
2024-03-02T03:32:54.353Z,85.39
2024-03-02T03:35:24.468Z,84.82
2024-03-02T03:37:54.561Z,86.65
2024-03-02T03:40:24.889Z,86.15
2024-03-02T03:42:55.133Z,87.05
2024-03-02T03:45:25.431Z,86.02
2024-03-02T03:47:56.042Z,88.10
2024-03-02T03:50:26.166Z,86.38
2024-03-02T03:52:56.393Z,86.38
2024-03-02T03:55:26.555Z,89.10
2024-03-02T03:57:57.013Z,88.51
2024-03-02T04:00:27.423Z,87.17
2024-03-02T04:02:57.780Z,88.11
2024-03-02T04:05:28.088Z,87.41
2024-03-02T04:07:58.417Z,87.41
2024-03-02T04:10:28.739Z,89.89
2024-03-02T04:12:58.975Z,89.34
2024-03-02T04:15:29.153Z,89.34
2024-03-02T04:17:59.451Z,88.18
2024-03-02T04:20:29.835Z,89.11
2024-03-02T04:23:00.280Z,89.22
2024-03-02T04:25:30.552Z,90.00
2024-03-02T04:28:00.894Z,90.00
2024-03-02T04:30:31.388Z,88.79
2024-03-02T04:33:01.744Z,88.79
2024-03-02T04:35:32.300Z,87.52
2024-03-02T04:38:02.473Z,87.79
2024-03-02T04:40:32.711Z,88.55
2024-03-02T04:43:03.177Z,87.80
2024-03-02T04:45:33.742Z,86.23
2024-03-02T04:48:04.170Z,86.01
2024-03-02T04:50:34.585Z,86.16
2024-03-02T04:53:05.097Z,90.07
2024-03-02T04:55:35.489Z,88.82
2024-03-02T04:58:05.902Z,88.82
2024-03-02T05:00:37.088Z,89.29
2024-03-02T05:03:07.301Z,90.32
2024-03-02T05:05:37.373Z,89.62
2024-03-02T05:08:07.653Z,87.83
2024-03-02T05:10:38.130Z,88.37
2024-03-02T05:13:08.407Z,86.88
2024-03-02T05:15:38.935Z,86.88
2024-03-02T05:18:09.281Z,86.58
2024-03-02T05:20:39.401Z,86.58
2024-03-02T05:23:09.797Z,86.73
2024-03-02T05:25:40.303Z,87.24
2024-03-02T05:28:10.578Z,87.24
2024-03-02T05:30:40.741Z,88.50
2024-03-02T05:33:12.532Z,86.95
2024-03-02T05:35:42.722Z,86.95
2024-03-02T05:38:12.992Z,86.14
2024-03-02T05:40:43.059Z,88.34
2024-03-02T05:43:13.411Z,87.41
2024-03-02T05:45:43.608Z,87.62
2024-03-02T05:48:13.737Z,87.88
2024-03-02T05:50:43.918Z,88.22
2024-03-02T05:53:14.083Z,88.14
2024-03-02T05:55:44.182Z,88.21
2024-03-02T05:58:14.295Z,87.41
2024-03-02T06:00:44.622Z,88.08
2024-03-02T06:03:14.824Z,88.01
2024-03-02T06:05:44.952Z,88.01
2024-03-02T06:08:15.162Z,87.07
2024-03-02T06:10:45.795Z,86.03
2024-03-02T06:13:16.253Z,87.21
2024-03-02T06:15:46.463Z,85.79
2024-03-02T06:18:16.753Z,86.80
2024-03-02T06:20:47.073Z,86.80
2024-03-02T06:23:18.634Z,87.04
2024-03-02T06:25:48.931Z,87.78
2024-03-02T06:28:19.398Z,87.17
2024-03-02T06:30:49.670Z,85.74
2024-03-02T06:33:19.857Z,86.66
2024-03-02T06:35:50.415Z,86.15
2024-03-02T06:38:20.543Z,86.38
2024-03-02T06:40:50.966Z,86.35
2024-03-02T06:43:21.301Z,86.52
2024-03-02T06:45:54.240Z,86.33
2024-03-02T06:48:24.346Z,88.65
2024-03-02T06:50:54.451Z,87.12
2024-03-02T06:53:24.679Z,89.02
2024-03-02T06:55:54.958Z,88.39
2024-03-02T06:58:25.137Z,88.39
2024-03-02T07:00:55.413Z,87.78
2024-03-02T07:03:25.688Z,86.73
2024-03-02T07:05:56.066Z,86.73
2024-03-02T07:08:26.365Z,86.97
2024-03-02T07:10:56.736Z,86.19
2024-03-02T07:13:26.809Z,86.19
2024-03-02T07:15:57.057Z,85.78
2024-03-02T07:18:27.246Z,84.66
2024-03-02T07:20:58.103Z,85.80
2024-03-02T07:23:28.887Z,85.80
2024-03-02T07:28:32.460Z,83.24
2024-03-02T07:31:03.904Z,82.46
2024-03-02T07:33:34.487Z,84.04
2024-03-02T07:36:05.447Z,81.53
2024-03-02T07:38:35.849Z,83.30
2024-03-02T07:41:06.089Z,83.30
2024-03-02T07:43:36.734Z,82.03
2024-03-02T07:46:07.471Z,82.55
2024-03-02T07:48:37.715Z,82.55
2024-03-02T07:51:08.124Z,81.40
2024-03-02T07:53:38.284Z,81.98
2024-03-02T07:56:08.549Z,81.75
2024-03-02T07:58:39.010Z,81.75
2024-03-02T08:01:09.739Z,81.92
2024-03-02T08:03:40.101Z,81.92
2024-03-02T08:06:10.231Z,81.96
2024-03-02T08:08:41.239Z,82.39
2024-03-02T08:11:11.609Z,80.40
2024-03-02T08:13:41.929Z,80.40
2024-03-02T08:16:12.040Z,78.70
2024-03-02T08:18:42.756Z,78.09
2024-03-02T08:21:13.453Z,78.09
2024-03-02T08:23:49.796Z,78.87
2024-03-02T08:26:20.457Z,78.68
2024-03-02T08:28:50.742Z,78.68
2024-03-02T08:31:21.121Z,78.06
2024-03-02T08:33:51.375Z,77.52
2024-03-02T08:36:22.072Z,75.68
2024-03-02T08:38:52.452Z,75.26
2024-03-02T08:41:23.135Z,75.86
2024-03-02T08:43:53.314Z,75.42
2024-03-02T08:46:23.725Z,74.67
2024-03-02T08:48:54.176Z,74.62
2024-03-02T08:51:24.472Z,73.43
2024-03-02T08:53:54.795Z,73.43
2024-03-02T08:56:25.530Z,73.02
2024-03-02T08:58:55.822Z,72.48
2024-03-02T09:01:26.394Z,72.33
2024-03-02T09:03:56.724Z,72.05
2024-03-02T09:06:27.218Z,70.93
2024-03-02T09:08:57.543Z,71.55
2024-03-02T09:11:28.377Z,71.08
2024-03-02T09:13:58.475Z,72.09
2024-03-02T09:16:28.845Z,71.50
2024-03-02T09:18:59.499Z,71.08
2024-03-02T09:21:29.752Z,71.57
2024-03-02T09:24:00.005Z,70.63
2024-03-02T09:26:30.410Z,71.11
2024-03-02T09:29:00.754Z,71.56
2024-03-02T09:31:31.130Z,71.43
2024-03-02T09:34:01.546Z,71.43
2024-03-02T09:36:32.073Z,70.61
2024-03-02T09:39:02.347Z,70.19
2024-03-02T09:41:34.574Z,71.16
2024-03-02T09:44:05.681Z,71.16
2024-03-02T09:46:35.895Z,70.74
2024-03-02T09:49:06.309Z,70.90
2024-03-02T09:51:36.877Z,70.66
2024-03-02T09:54:17.640Z,70.79
2024-03-02T09:56:41.257Z,70.76
2024-03-02T09:59:11.411Z,70.46
2024-03-02T10:01:43.178Z,70.46
2024-03-02T10:04:34.275Z,70.61
2024-03-02T10:07:15.444Z,70.88
2024-03-02T10:09:49.964Z,71.87
2024-03-02T10:12:20.523Z,71.15
2024-03-02T10:14:51.156Z,71.04
2024-03-02T10:17:21.505Z,69.66
2024-03-02T10:19:51.889Z,69.84
2024-03-02T10:22:24.430Z,69.72
2024-03-02T10:24:59.136Z,68.96
2024-03-02T10:27:28.937Z,68.96
2024-03-02T10:29:59.251Z,69.55
2024-03-02T10:32:30.375Z,69.63
2024-03-02T10:35:01.316Z,69.81
2024-03-02T10:37:31.832Z,69.52
2024-03-02T10:42:48.302Z,69.47
2024-03-02T10:45:22.061Z,69.47
2024-03-02T10:47:52.623Z,70.02
2024-03-02T10:50:22.978Z,69.25
2024-03-02T10:52:53.431Z,69.25
2024-03-02T10:55:23.948Z,70.28
2024-03-02T10:57:56.025Z,69.34
2024-03-02T11:00:28.603Z,69.08
2024-03-02T11:03:00.903Z,69.18
2024-03-02T11:05:33.298Z,69.18
2024-03-02T11:08:06.278Z,68.72
2024-03-02T11:10:48.588Z,68.47
2024-03-02T11:13:21.794Z,68.47
2024-03-02T11:15:55.068Z,69.67
2024-03-02T11:18:26.743Z,69.97
2024-03-02T11:20:57.739Z,69.60
2024-03-02T11:23:34.938Z,69.60
2024-03-02T11:26:22.776Z,69.18
2024-03-02T11:28:53.180Z,68.91
2024-03-02T11:31:23.542Z,68.91
2024-03-02T11:33:53.894Z,69.52
2024-03-02T11:36:24.391Z,69.95
2024-03-02T11:38:54.790Z,69.95
2024-03-02T11:41:25.696Z,69.56
2024-03-02T11:43:56.176Z,69.40
2024-03-02T11:46:27.862Z,69.20
2024-03-02T11:48:58.196Z,69.10
2024-03-02T11:51:28.544Z,69.27
2024-03-02T11:54:00.616Z,69.10
2024-03-02T11:56:33.095Z,69.50
2024-03-02T11:59:09.626Z,70.05
2024-03-02T12:01:40.186Z,69.73
2024-03-02T12:04:11.329Z,70.39
2024-03-02T12:06:41.959Z,69.59
2024-03-02T12:09:12.405Z,69.36
2024-03-02T12:11:42.586Z,69.86
2024-03-02T12:14:15.656Z,69.93
2024-03-02T12:16:46.619Z,69.62
2024-03-02T12:19:16.971Z,69.64
2024-03-02T12:21:48.037Z,70.20
2024-03-02T12:24:18.453Z,70.33
2024-03-02T12:26:48.892Z,70.33
2024-03-02T12:29:21.340Z,70.05
2024-03-02T12:31:53.230Z,70.51
2024-03-02T12:34:24.292Z,70.51
2024-03-02T12:36:54.916Z,70.15
2024-03-02T12:39:25.473Z,70.51
2024-03-02T12:41:55.805Z,70.75
2024-03-02T12:44:25.929Z,70.00
2024-03-02T12:46:59.289Z,70.00
2024-03-02T12:49:28.653Z,70.31
2024-03-02T12:51:59.249Z,69.90
2024-03-02T12:54:29.685Z,70.80
2024-03-02T12:56:59.962Z,70.42
2024-03-02T12:59:30.316Z,70.39
2024-03-02T13:02:00.677Z,70.56
2024-03-02T13:04:31.501Z,70.99
2024-03-02T13:07:03.079Z,70.99
2024-03-02T13:09:33.391Z,70.78
2024-03-02T13:12:04.225Z,70.53
2024-03-02T13:14:35.355Z,70.53
2024-03-02T13:17:05.580Z,70.74
2024-03-02T13:19:36.511Z,70.54
2024-03-02T13:22:06.820Z,71.52
2024-03-02T13:24:37.357Z,71.52
2024-03-02T13:27:07.964Z,71.92
2024-03-02T13:29:38.349Z,72.06
2024-03-02T13:32:10.204Z,71.70
2024-03-02T13:34:40.570Z,71.97
2024-03-02T13:37:11.260Z,71.60
2024-03-02T13:39:43.666Z,70.97
2024-03-02T13:42:14.273Z,71.49
2024-03-02T13:45:08.147Z,71.25
2024-03-02T13:47:39.688Z,71.70
2024-03-02T13:50:10.341Z,71.11
2024-03-02T13:52:40.535Z,72.11
2024-03-02T13:55:10.894Z,72.11
2024-03-02T13:57:43.358Z,71.82
2024-03-02T14:00:15.322Z,72.03
2024-03-02T14:02:46.985Z,72.45
2024-03-02T14:05:17.433Z,73.23
2024-03-02T14:07:47.812Z,72.80
2024-03-02T14:10:18.469Z,72.40
2024-03-02T14:12:50.405Z,72.40
2024-03-02T14:15:21.936Z,72.97
2024-03-02T14:17:52.561Z,73.83
2024-03-02T14:20:23.075Z,73.42
2024-03-02T14:22:53.556Z,73.14
2024-03-02T14:25:26.488Z,73.70
2024-03-02T14:28:17.010Z,73.33
2024-03-02T14:30:31.930Z,73.33
2024-03-02T14:33:04.902Z,73.33
2024-03-02T14:35:35.307Z,73.73
2024-03-02T14:38:08.386Z,73.96
2024-03-02T14:40:38.638Z,73.96
2024-03-02T14:46:02.709Z,74.28
2024-03-02T14:48:33.422Z,74.08
2024-03-02T14:51:05.344Z,74.45
2024-03-02T14:53:56.461Z,74.68
2024-03-02T14:56:26.708Z,74.49
2024-03-02T14:58:58.457Z,74.72
2024-03-02T15:01:28.858Z,74.72
2024-03-02T15:04:02.054Z,74.68
2024-03-02T15:06:32.748Z,74.68
2024-03-02T15:09:03.002Z,75.35
2024-03-02T15:11:37.251Z,75.85
2024-03-02T15:14:10.492Z,76.63
2024-03-02T15:16:41.502Z,76.50
2024-03-02T15:19:16.551Z,76.50
2024-03-02T15:21:47.044Z,76.30
2024-03-02T15:24:23.287Z,75.96
2024-03-02T15:27:00.020Z,77.45
2024-03-02T15:29:33.335Z,77.45
2024-03-02T15:32:05.787Z,77.16
2024-03-02T15:34:36.411Z,77.16
2024-03-02T15:37:07.134Z,79.16
2024-03-02T15:39:37.563Z,79.09
2024-03-02T15:42:10.694Z,79.24
2024-03-02T15:44:41.895Z,80.48
2024-03-02T15:47:12.964Z,80.48
2024-03-02T15:49:44.648Z,79.75
2024-03-02T15:52:14.893Z,83.43
2024-03-02T15:54:52.101Z,83.43
2024-03-02T15:57:22.822Z,84.01
2024-03-02T15:59:54.915Z,84.24
2024-03-02T16:02:25.302Z,84.24
2024-03-02T16:04:55.737Z,82.80
2024-03-02T16:07:26.139Z,83.76
2024-03-02T16:09:56.493Z,84.72
2024-03-02T16:12:26.773Z,85.27
2024-03-02T16:14:59.893Z,84.12
2024-03-02T16:17:30.402Z,85.54
2024-03-02T16:20:08.075Z,85.54
2024-03-02T16:22:38.775Z,85.56
2024-03-02T16:25:12.079Z,85.05
2024-03-02T16:27:44.754Z,86.79
2024-03-02T16:30:15.302Z,86.50
2024-03-02T16:32:48.565Z,87.07
2024-03-02T16:35:19.077Z,87.86
2024-03-02T16:37:52.540Z,87.67
2024-03-02T16:40:22.851Z,88.68
2024-03-02T16:42:53.345Z,88.68
2024-03-02T16:45:23.577Z,87.37
2024-03-02T16:47:56.697Z,87.49
2024-03-02T16:50:28.503Z,85.98
2024-03-02T16:53:01.496Z,86.64
2024-03-02T16:55:34.809Z,86.10
2024-03-02T16:58:08.034Z,86.70
2024-03-02T17:00:38.524Z,86.67
2024-03-02T17:03:08.799Z,84.88
2024-03-02T17:05:39.164Z,84.88
2024-03-02T17:08:10.492Z,87.61
2024-03-02T17:10:40.762Z,87.61
2024-03-02T17:13:12.185Z,88.54
2024-03-02T17:15:42.434Z,89.12
2024-03-02T17:18:15.823Z,88.69
2024-03-02T17:20:46.169Z,89.07
2024-03-02T17:23:16.353Z,89.07
2024-03-02T17:25:48.672Z,86.06
2024-03-02T17:28:46.346Z,89.86
2024-03-02T17:31:16.672Z,88.09
2024-03-02T17:33:46.858Z,88.09
2024-03-02T17:36:17.161Z,87.52
2024-03-02T17:38:47.395Z,86.31
2024-03-02T17:41:18.462Z,85.61
2024-03-02T17:43:48.703Z,85.61
2024-03-02T17:46:21.590Z,86.42
2024-03-02T17:48:51.891Z,85.62
2024-03-02T17:51:22.255Z,85.62
2024-03-02T17:53:52.598Z,85.86
2024-03-02T17:56:22.955Z,85.51
2024-03-02T17:58:53.173Z,85.51
2024-03-02T18:01:23.396Z,86.01
2024-03-02T18:03:53.866Z,86.79
2024-03-02T18:06:24.289Z,85.87
2024-03-02T18:08:54.692Z,84.77
2024-03-02T18:11:25.037Z,86.31
2024-03-02T18:13:55.587Z,84.88
2024-03-02T18:16:27.048Z,85.36
2024-03-02T18:18:57.476Z,85.36
2024-03-02T18:21:33.876Z,85.14
2024-03-02T18:24:04.351Z,85.59
2024-03-02T18:26:34.882Z,87.88
2024-03-02T18:29:05.594Z,86.79
2024-03-02T18:31:38.969Z,86.79
2024-03-02T18:34:09.372Z,86.82
2024-03-02T18:36:39.631Z,88.24
2024-03-02T18:39:15.736Z,88.24
2024-03-02T18:41:47.447Z,85.70
2024-03-02T18:44:24.900Z,85.70
2024-03-02T18:46:55.199Z,88.03
2024-03-02T18:49:25.518Z,86.23
2024-03-02T18:51:55.912Z,86.23
2024-03-02T18:54:26.273Z,86.13
2024-03-02T18:56:57.206Z,86.13
2024-03-02T18:59:27.444Z,88.99
2024-03-02T19:01:57.927Z,88.11
2024-03-02T19:04:28.392Z,88.98
2024-03-02T19:06:58.697Z,88.98
2024-03-02T19:09:28.982Z,90.43
2024-03-02T19:12:01.821Z,89.45
2024-03-02T19:14:32.594Z,88.67
2024-03-02T19:17:02.953Z,87.62
2024-03-02T19:19:33.300Z,86.80
2024-03-02T19:22:08.322Z,86.80
2024-03-02T19:24:39.141Z,87.74
2024-03-02T19:27:09.668Z,89.38
2024-03-02T19:29:39.962Z,88.88
2024-03-02T19:32:12.534Z,87.24
2024-03-02T19:34:45.182Z,90.01
2024-03-02T19:37:15.600Z,91.06
2024-03-02T19:39:47.343Z,89.05
2024-03-02T19:42:17.494Z,89.05
2024-03-02T19:44:47.837Z,89.32
2024-03-02T19:47:18.043Z,88.92
2024-03-02T19:49:48.499Z,91.79
2024-03-02T19:52:23.695Z,90.08
2024-03-02T19:54:54.133Z,88.71
2024-03-02T19:57:24.688Z,88.11
2024-03-02T19:59:57.716Z,89.86
2024-03-02T20:02:28.132Z,89.38
2024-03-02T20:05:00.055Z,90.66
2024-03-02T20:07:30.244Z,90.39
2024-03-02T20:10:00.753Z,90.39
2024-03-02T20:12:31.276Z,91.64
2024-03-02T20:15:01.817Z,91.51
2024-03-02T20:17:32.598Z,91.51
2024-03-02T20:20:02.912Z,90.47
2024-03-02T20:22:33.389Z,89.15
2024-03-02T20:25:11.342Z,89.47
2024-03-02T20:27:42.604Z,89.47
2024-03-02T20:30:19.978Z,90.61
2024-03-02T20:32:50.324Z,88.95
2024-03-02T20:35:20.496Z,91.59
2024-03-02T20:37:50.739Z,91.59
2024-03-02T20:40:21.072Z,89.07
2024-03-02T20:42:51.367Z,89.07
2024-03-02T20:45:21.582Z,89.02
2024-03-02T20:47:51.749Z,90.10
2024-03-02T20:50:22.074Z,91.97
2024-03-02T20:52:52.416Z,91.29
2024-03-02T20:55:22.987Z,91.29
2024-03-02T20:57:53.399Z,93.09
2024-03-02T21:00:23.729Z,91.57
2024-03-02T21:02:54.183Z,91.66
2024-03-02T21:05:24.639Z,91.66
2024-03-02T21:07:55.047Z,90.52
2024-03-02T21:10:25.408Z,88.96
2024-03-02T21:12:55.778Z,95.49
2024-03-02T21:15:26.452Z,95.49
2024-03-02T21:17:56.709Z,92.60
2024-03-02T21:20:26.786Z,90.76
2024-03-02T21:22:57.015Z,94.17
2024-03-02T21:25:27.278Z,94.22
2024-03-02T21:27:57.552Z,94.64
2024-03-02T21:30:27.906Z,94.64
2024-03-02T21:32:58.335Z,93.78
2024-03-02T21:35:28.805Z,93.78
2024-03-02T21:38:00.880Z,91.02
2024-03-02T21:40:31.552Z,94.72
2024-03-02T21:43:03.577Z,92.16
2024-03-02T21:45:34.196Z,93.30
2024-03-02T21:48:04.679Z,93.30
2024-03-02T21:50:34.907Z,95.20
2024-03-02T21:53:05.153Z,95.20
2024-03-02T21:55:35.538Z,92.20
2024-03-02T21:58:05.826Z,92.83
2024-03-02T22:00:36.176Z,92.83
2024-03-02T22:03:06.680Z,91.49
2024-03-02T22:05:37.031Z,91.49
2024-03-02T22:08:07.545Z,91.60
2024-03-02T22:10:37.934Z,90.42
2024-03-02T22:13:08.219Z,90.42
2024-03-02T22:15:38.496Z,91.49
2024-03-02T22:18:08.844Z,92.30
2024-03-02T22:20:39.007Z,92.56
2024-03-02T22:23:09.179Z,92.50
2024-03-02T22:25:39.661Z,94.08
2024-03-02T22:28:09.968Z,94.98
2024-03-02T22:30:40.347Z,94.98
2024-03-02T22:33:10.511Z,91.39
2024-03-02T22:35:40.653Z,93.62
2024-03-02T22:38:10.691Z,91.44
2024-03-02T22:40:40.922Z,91.44
2024-03-02T22:43:11.164Z,91.56
2024-03-02T22:45:41.403Z,91.86
2024-03-02T22:48:11.835Z,90.76
2024-03-02T22:50:42.108Z,92.19
2024-03-02T22:53:12.306Z,90.27
2024-03-02T22:55:42.634Z,90.27
2024-03-02T22:58:12.852Z,90.95
2024-03-02T23:00:43.113Z,90.27
2024-03-02T23:03:13.250Z,89.74
2024-03-02T23:05:43.555Z,89.74
2024-03-02T23:08:13.662Z,90.19
2024-03-02T23:10:43.830Z,90.25
2024-03-02T23:13:14.104Z,89.92
2024-03-02T23:15:44.479Z,89.92
2024-03-02T23:18:14.802Z,90.14
2024-03-02T23:20:45.334Z,91.29
2024-03-02T23:23:15.443Z,89.93
2024-03-02T23:25:46.853Z,89.93
2024-03-02T23:28:17.604Z,89.13
2024-03-02T23:30:47.809Z,88.35
2024-03-02T23:33:17.989Z,88.77
2024-03-02T23:35:48.084Z,88.02
2024-03-02T23:38:18.135Z,89.08
2024-03-02T23:40:48.329Z,89.08
2024-03-02T23:43:18.553Z,88.90
2024-03-02T23:45:48.803Z,87.86
2024-03-02T23:48:19.021Z,88.31
2024-03-02T23:50:49.203Z,88.04
2024-03-02T23:53:19.321Z,86.90
2024-03-02T23:55:52.742Z,87.39
2024-03-02T23:58:21.557Z,87.16
